Time;durP1;ratioP1;P1;durP2;ratioP2;P2;SDS_P1;SDS_P2;PMS_P1;PMS_P2;Temp;Humidity;BMP_temperature;BMP_pressure;BME280_temperature;BME280_humidity;BME280_pressure;Samples;Min_cycle;Max_cycle;Signal;HPM_P1;HPM_P2
2023/11/11 00:01:35;;;;;;;8.57;4.53;;;10.50;99.90;;;;;;5107154;28;20612;-67
2023/11/11 00:04:02;;;;;;;7.87;4.43;;;10.40;99.90;;;;;;5097418;28;20652;-63
2023/11/11 00:06:29;;;;;;;7.43;4.83;;;10.40;99.90;;;;;;5093836;28;20211;-63
2023/11/11 00:08:57;;;;;;;6.87;4.40;;;10.40;99.90;;;;;;5095084;28;20203;-63
2023/11/11 00:11:25;;;;;;;5.67;3.70;;;10.40;99.90;;;;;;5093755;28;20196;-64
2023/11/11 00:13:53;;;;;;;6.77;4.20;;;10.40;99.90;;;;;;5098062;28;20210;-64
2023/11/11 00:16:20;;;;;;;7.57;4.67;;;10.40;99.90;;;;;;5098270;28;20191;-65
2023/11/11 00:18:48;;;;;;;8.20;4.90;;;10.30;99.90;;;;;;5108889;28;20674;-64
2023/11/11 00:21:15;;;;;;;7.47;4.27;;;10.30;99.90;;;;;;5097261;28;20208;-64
2023/11/11 00:23:42;;;;;;;6.07;4.17;;;10.20;99.90;;;;;;5095483;28;20214;-65
2023/11/11 00:26:09;;;;;;;6.20;3.77;;;10.20;99.90;;;;;;5097780;28;20215;-64
2023/11/11 00:28:40;;;;;;;4.63;3.23;;;10.30;99.90;;;;;;5098220;28;20220;-63
2023/11/11 00:31:10;;;;;;;3.83;3.13;;;10.30;99.90;;;;;;5108697;28;20622;-64
2023/11/11 00:33:38;;;;;;;4.43;3.17;;;11.10;99.90;;;;;;5092415;28;20617;-65
2023/11/11 00:36:06;;;;;;;5.03;2.90;;;10.40;99.90;;;;;;5104109;28;20286;-64
2023/11/11 00:38:34;;;;;;;5.03;3.33;;;10.40;99.90;;;;;;5098705;28;20861;-64
2023/11/11 00:41:01;;;;;;;3.80;2.70;;;10.40;99.90;;;;;;5092835;28;20559;-64
2023/11/11 00:43:28;;;;;;;3.87;2.83;;;10.40;99.90;;;;;;5089696;28;20202;-64
2023/11/11 00:45:56;;;;;;;3.77;2.87;;;10.40;99.90;;;;;;5097894;28;20199;-63
2023/11/11 00:48:24;;;;;;;5.20;3.17;;;10.40;99.90;;;;;;5097855;28;20220;-63
2023/11/11 00:50:51;;;;;;;6.10;3.00;;;10.40;99.90;;;;;;5103596;28;20274;-63
2023/11/11 00:53:19;;;;;;;3.23;2.73;;;10.40;99.90;;;;;;5107383;28;20203;-63
2023/11/11 00:55:46;;;;;;;5.67;3.43;;;10.40;99.90;;;;;;5104289;28;20276;-64
2023/11/11 00:58:13;;;;;;;7.50;4.10;;;10.30;99.90;;;;;;5091360;28;20200;-64
2023/11/11 01:00:42;;;;;;;8.67;5.00;;;10.30;99.90;;;;;;5098739;28;20255;-63
2023/11/11 01:03:11;;;;;;;8.23;4.50;;;10.30;99.90;;;;;;5104751;28;20196;-63
2023/11/11 01:05:38;;;;;;;15.77;6.50;;;10.20;99.90;;;;;;5105137;28;20195;-64
2023/11/11 01:08:05;;;;;;;10.00;5.43;;;10.20;99.90;;;;;;5096116;28;20305;-63
2023/11/11 01:10:37;;;;;;;12.27;6.13;;;10.20;99.90;;;;;;5096313;28;20195;-64
2023/11/11 01:13:04;;;;;;;10.87;5.70;;;10.20;99.90;;;;;;5097784;28;20246;-64
2023/11/11 01:15:32;;;;;;;12.37;6.00;;;10.70;99.90;;;;;;5098675;28;20658;-64
2023/11/11 01:17:59;;;;;;;8.97;5.57;;;10.10;99.90;;;;;;5101060;28;20194;-63
2023/11/11 01:20:28;;;;;;;9.30;5.30;;;10.10;99.90;;;;;;5103028;28;20195;-63
2023/11/11 01:22:55;;;;;;;9.07;5.03;;;10.10;99.90;;;;;;5092828;28;20558;-63
2023/11/11 01:25:22;;;;;;;9.20;5.27;;;10.10;99.90;;;;;;5090007;28;20203;-63
2023/11/11 01:27:50;;;;;;;9.10;5.23;;;10.10;99.90;;;;;;5091862;28;20226;-63
2023/11/11 01:30:17;;;;;;;9.33;5.00;;;9.70;99.90;;;;;;5104641;27;20227;-64
2023/11/11 01:32:45;;;;;;;8.10;4.93;;;10.10;99.90;;;;;;5093048;28;20201;-64
2023/11/11 01:35:15;;;;;;;8.83;4.67;;;;;;;;;;5099445;28;20720;-64
2023/11/11 01:37:44;;;;;;;8.97;4.67;;;10.00;99.90;;;;;;5108814;28;20200;-63
2023/11/11 01:40:12;;;;;;;10.00;4.60;;;10.00;99.90;;;;;;5111764;28;20206;-64
2023/11/11 01:42:40;;;;;;;7.83;4.40;;;10.00;99.90;;;;;;5098087;28;20287;-63
2023/11/11 01:45:07;;;;;;;8.60;4.80;;;10.00;99.90;;;;;;5099908;28;20281;-63
2023/11/11 01:47:36;;;;;;;6.63;4.33;;;10.00;99.90;;;;;;5098315;28;20608;-63
2023/11/11 01:50:03;;;;;;;8.43;5.50;;;10.00;99.90;;;;;;5099897;28;20579;-64
2023/11/11 01:52:30;;;;;;;11.07;6.27;;;9.90;99.90;;;;;;5106423;28;20243;-64
2023/11/11 01:55:01;;;;;;;12.33;6.50;;;9.80;99.90;;;;;;5096339;28;20247;-65
2023/11/11 01:57:29;;;;;;;12.27;6.80;;;9.70;99.90;;;;;;5102432;28;20180;-65
2023/11/11 01:59:58;;;;;;;12.43;7.27;;;9.80;99.90;;;;;;5088791;28;20208;-64
2023/11/11 02:02:25;;;;;;;12.33;6.53;;;9.70;99.90;;;;;;5096370;28;20207;-64
2023/11/11 02:04:52;;;;;;;11.07;6.40;;;9.80;99.90;;;;;;5094496;28;20603;-64
2023/11/11 02:07:19;;;;;;;12.90;7.00;;;9.70;99.90;;;;;;5092752;28;20676;-64
2023/11/11 02:09:48;;;;;;;11.80;6.10;;;9.70;99.90;;;;;;5102916;28;20188;-64
2023/11/11 02:12:18;;;;;;;9.53;5.27;;;9.70;99.90;;;;;;5101096;28;20222;-64
2023/11/11 02:14:45;;;;;;;10.83;6.20;;;9.70;99.90;;;;;;5102847;28;20184;-64
2023/11/11 02:17:12;;;;;;;9.00;5.17;;;9.70;99.90;;;;;;5104822;28;20274;-64
2023/11/11 02:19:39;;;;;;;7.40;5.30;;;;;;;;;;5091496;28;20296;-64
2023/11/11 02:22:08;;;;;;;8.83;5.47;;;9.50;99.90;;;;;;5100962;28;20200;-64
2023/11/11 02:24:38;;;;;;;15.10;6.73;;;9.70;99.90;;;;;;5103375;28;20192;-64
2023/11/11 02:27:06;;;;;;;25.90;10.20;;;9.60;99.90;;;;;;5101983;28;20212;-64
2023/11/11 02:29:33;;;;;;;21.67;8.27;;;9.50;99.90;;;;;;5090920;28;20811;-64
2023/11/11 02:32:00;;;;;;;22.83;10.10;;;9.60;99.90;;;;;;5102419;28;20239;-64
2023/11/11 02:34:27;;;;;;;21.60;8.67;;;9.60;99.90;;;;;;5098228;28;20561;-64
2023/11/11 02:36:56;;;;;;;19.17;8.13;;;9.60;99.90;;;;;;5097748;28;20550;-63
2023/11/11 02:39:23;;;;;;;19.37;7.40;;;9.60;99.90;;;;;;5096049;28;20196;-64
2023/11/11 02:41:52;;;;;;;17.73;7.20;;;9.60;99.90;;;;;;5097081;28;20259;-64
2023/11/11 02:44:19;;;;;;;13.77;6.73;;;9.90;99.90;;;;;;5090203;28;20268;-64
2023/11/11 02:46:46;;;;;;;12.63;6.67;;;9.70;99.90;;;;;;5097472;28;20229;-64
2023/11/11 02:49:14;;;;;;;11.60;5.33;;;9.70;99.90;;;;;;5100008;28;20207;-63
2023/11/11 02:51:41;;;;;;;12.20;6.13;;;8.80;99.90;;;;;;5100301;28;20245;-63
2023/11/11 02:54:08;;;;;;;11.13;5.07;;;9.50;99.90;;;;;;5101639;28;20268;-63
2023/11/11 02:56:35;;;;;;;8.60;4.10;;;9.50;99.90;;;;;;5093636;28;20597;-64
2023/11/11 02:59:04;;;;;;;7.40;3.83;;;9.30;99.90;;;;;;5100336;28;20228;-64
2023/11/11 03:01:35;;;;;;;6.60;4.30;;;9.40;99.90;;;;;;5095703;28;20191;-64
2023/11/11 03:04:02;;;;;;;10.40;4.87;;;9.60;99.90;;;;;;5103227;28;20628;-64
2023/11/11 03:06:30;;;;;;;7.87;4.13;;;9.30;99.90;;;;;;5090861;28;20287;-64
2023/11/11 03:08:57;;;;;;;7.50;4.23;;;;;;;;;;5101735;28;20213;-64
2023/11/11 03:11:24;;;;;;;6.63;4.20;;;9.60;99.90;;;;;;5095042;28;20273;-64
2023/11/11 03:13:52;;;;;;;5.23;3.60;;;;;;;;;;5098451;28;20211;-64
2023/11/11 03:16:21;;;;;;;5.40;3.17;;;9.70;99.90;;;;;;5091267;28;20547;-65
2023/11/11 03:18:48;;;;;;;6.37;3.60;;;9.40;99.90;;;;;;5098447;28;20199;-64
2023/11/11 03:21:20;;;;;;;7.00;4.30;;;9.40;99.90;;;;;;5105819;28;20195;-64
2023/11/11 03:23:48;;;;;;;5.10;3.70;;;9.40;99.90;;;;;;5106703;28;20196;-64
2023/11/11 03:26:15;;;;;;;6.33;3.63;;;9.30;99.90;;;;;;5096635;28;22278;-64
2023/11/11 03:28:42;;;;;;;7.83;4.00;;;9.50;99.90;;;;;;5099778;28;20320;-64
2023/11/11 03:31:10;;;;;;;4.67;3.00;;;9.30;99.90;;;;;;5109905;28;20192;-64
2023/11/11 03:33:38;;;;;;;5.87;3.13;;;9.40;99.90;;;;;;5107242;28;20226;-64
2023/11/11 03:36:07;;;;;;;4.00;2.87;;;9.50;99.90;;;;;;5093642;28;20230;-63
2023/11/11 03:38:34;;;;;;;2.83;2.60;;;9.40;99.90;;;;;;5106429;28;20214;-64
2023/11/11 03:41:01;;;;;;;2.87;2.33;;;9.20;99.90;;;;;;5102852;28;20200;-64
2023/11/11 03:43:29;;;;;;;3.20;2.50;;;9.40;99.90;;;;;;5103877;28;20557;-64
2023/11/11 03:45:56;;;;;;;2.60;2.10;;;9.40;99.90;;;;;;5099996;28;20235;-64
2023/11/11 03:48:24;;;;;;;4.33;2.70;;;9.40;99.90;;;;;;5099388;28;21004;-64
2023/11/11 03:50:52;;;;;;;6.77;2.80;;;9.30;99.90;;;;;;5110521;28;20189;-64
2023/11/11 03:53:20;;;;;;;3.33;2.93;;;9.30;99.90;;;;;;5104690;28;20195;-64
2023/11/11 03:55:47;;;;;;;4.47;3.43;;;9.20;99.90;;;;;;5105239;28;20198;-64
2023/11/11 03:58:14;;;;;;;4.17;2.80;;;9.20;99.90;;;;;;5092414;28;20228;-64
2023/11/11 04:00:43;;;;;;;2.67;2.37;;;9.10;99.90;;;;;;5100407;28;20290;-64
2023/11/11 04:03:10;;;;;;;2.67;2.43;;;9.20;99.90;;;;;;5104816;28;20195;-64
2023/11/11 04:05:38;;;;;;;4.57;3.10;;;9.20;99.90;;;;;;5098078;28;20199;-64
2023/11/11 04:08:06;;;;;;;3.47;2.93;;;9.20;99.90;;;;;;5104515;28;20273;-64
2023/11/11 04:10:34;;;;;;;2.97;2.67;;;9.20;99.90;;;;;;5111111;28;20197;-64
2023/11/11 04:13:01;;;;;;;2.70;2.50;;;9.20;99.90;;;;;;5098028;28;22120;-64
2023/11/11 04:15:29;;;;;;;2.50;2.27;;;9.20;99.90;;;;;;5090266;28;20256;-64
2023/11/11 04:17:56;;;;;;;3.03;2.73;;;9.20;99.90;;;;;;5093708;28;20195;-64
2023/11/11 04:20:23;;;;;;;3.47;2.47;;;9.20;99.90;;;;;;5090178;28;20196;-64
2023/11/11 04:22:53;;;;;;;2.70;2.50;;;9.20;99.90;;;;;;5108068;28;20206;-64
2023/11/11 04:25:21;;;;;;;2.37;2.13;;;9.30;99.90;;;;;;5094114;28;20668;-63
2023/11/11 04:27:49;;;;;;;2.97;2.03;;;9.30;99.90;;;;;;5092118;28;20219;-64
2023/11/11 04:30:16;;;;;;;3.03;2.00;;;9.30;99.90;;;;;;5097080;28;20239;-64
2023/11/11 04:32:43;;;;;;;1.70;1.60;;;9.30;99.90;;;;;;5093530;28;20283;-65
2023/11/11 04:35:11;;;;;;;2.13;2.00;;;9.30;99.90;;;;;;5096633;28;20194;-65
2023/11/11 04:37:38;;;;;;;2.80;1.90;;;9.20;99.90;;;;;;5098904;28;20232;-64
2023/11/11 04:40:08;;;;;;;1.90;1.80;;;9.20;99.90;;;;;;5090315;28;20200;-64
2023/11/11 04:42:37;;;;;;;2.43;2.10;;;9.20;99.90;;;;;;5096145;28;20290;-64
2023/11/11 04:45:05;;;;;;;2.23;2.00;;;9.10;99.90;;;;;;5110867;28;20220;-65
2023/11/11 04:47:32;;;;;;;2.53;1.83;;;9.10;99.90;;;;;;5096275;28;20300;-65
2023/11/11 04:49:59;;;;;;;1.70;1.60;;;9.10;99.90;;;;;;5097790;28;20195;-65
2023/11/11 04:52:26;;;;;;;1.67;1.57;;;9.10;99.90;;;;;;5098959;28;20574;-64
2023/11/11 04:54:53;;;;;;;1.67;1.40;;;9.10;99.90;;;;;;5096300;28;20196;-64
2023/11/11 04:57:20;;;;;;;1.60;1.50;;;9.20;99.90;;;;;;5097976;28;20196;-64
2023/11/11 04:59:49;;;;;;;1.40;1.30;;;9.20;99.90;;;;;;5091886;28;20193;-65
2023/11/11 05:02:19;;;;;;;1.20;1.20;;;9.20;99.90;;;;;;5105334;28;20242;-64
2023/11/11 05:04:49;;;;;;;1.77;1.60;;;9.20;99.90;;;;;;5094388;28;20291;-64
2023/11/11 05:07:19;;;;;;;1.47;1.20;;;9.20;99.90;;;;;;5097217;28;20594;-64
2023/11/11 05:09:46;;;;;;;1.30;1.20;;;9.20;99.90;;;;;;5092496;28;20219;-64
2023/11/11 05:12:14;;;;;;;1.57;1.43;;;9.20;99.90;;;;;;5099567;28;20237;-64
2023/11/11 05:14:42;;;;;;;2.27;1.87;;;9.30;99.90;;;;;;5106575;28;20196;-64
2023/11/11 05:17:10;;;;;;;2.63;2.13;;;9.20;99.90;;;;;;5091519;28;20199;-64
2023/11/11 05:19:37;;;;;;;3.50;2.87;;;9.20;99.90;;;;;;5109875;28;20207;-64
2023/11/11 05:22:05;;;;;;;5.33;3.70;;;9.30;99.90;;;;;;5092898;28;20206;-63
2023/11/11 05:24:32;;;;;;;5.23;3.83;;;9.20;99.90;;;;;;5103446;28;20231;-63
2023/11/11 05:27:03;;;;;;;5.67;3.60;;;9.10;99.90;;;;;;5092046;28;20198;-64
2023/11/11 05:29:30;;;;;;;5.70;3.57;;;9.10;99.90;;;;;;5097115;28;20690;-64
2023/11/11 05:31:57;;;;;;;6.53;3.70;;;9.00;99.90;;;;;;5106387;28;20611;-64
2023/11/11 05:34:25;;;;;;;4.10;3.17;;;8.90;99.90;;;;;;5092872;28;20204;-64
2023/11/11 05:36:55;;;;;;;4.77;3.10;;;8.90;99.90;;;;;;5100488;28;20200;-64
2023/11/11 05:39:22;;;;;;;4.63;2.67;;;8.90;99.90;;;;;;5096771;28;20526;-64
2023/11/11 05:41:50;;;;;;;3.53;2.90;;;8.90;99.90;;;;;;5103881;28;20693;-64
2023/11/11 05:44:17;;;;;;;3.80;2.70;;;8.90;99.90;;;;;;5107299;28;20207;-64
2023/11/11 05:46:44;;;;;;;4.60;2.73;;;8.90;99.90;;;;;;5094794;28;20626;-64
2023/11/11 05:49:11;;;;;;;3.27;2.33;;;8.90;99.90;;;;;;5095641;28;20295;-64
2023/11/11 05:51:40;;;;;;;2.53;2.33;;;8.90;99.90;;;;;;5095683;28;20199;-64
2023/11/11 05:54:07;;;;;;;2.80;2.60;;;8.90;99.90;;;;;;5110089;27;20238;-64
2023/11/11 05:56:34;;;;;;;2.30;2.10;;;8.90;99.90;;;;;;5099276;28;20563;-64
2023/11/11 05:59:01;;;;;;;2.40;2.20;;;8.90;99.90;;;;;;5100457;28;20204;-64
2023/11/11 06:01:37;;;;;;;4.13;2.80;;;8.80;99.90;;;;;;5096194;28;20198;-64
2023/11/11 06:04:05;;;;;;;2.57;2.07;;;8.80;99.90;;;;;;5095764;28;20191;-64
2023/11/11 06:06:32;;;;;;;4.47;2.30;;;9.30;99.90;;;;;;5095419;28;20202;-64
2023/11/11 06:09:00;;;;;;;2.43;2.10;;;8.80;99.90;;;;;;5103418;28;20298;-64
2023/11/11 06:11:27;;;;;;;4.00;2.70;;;8.80;99.90;;;;;;5093185;28;20222;-64
2023/11/11 06:13:55;;;;;;;3.50;2.73;;;8.70;99.90;;;;;;5095347;28;20208;-64
2023/11/11 06:16:22;;;;;;;5.10;2.87;;;8.70;99.90;;;;;;5090185;28;20198;-64
2023/11/11 06:18:50;;;;;;;3.57;2.33;;;8.70;99.90;;;;;;5101034;28;20290;-64
2023/11/11 06:21:17;;;;;;;2.77;2.40;;;8.70;99.90;;;;;;5111868;28;20205;-64
2023/11/11 06:23:44;;;;;;;3.07;2.40;;;8.70;99.90;;;;;;5111454;28;20202;-64
2023/11/11 06:26:13;;;;;;;2.67;2.30;;;8.70;99.90;;;;;;5090091;28;20265;-64
2023/11/11 06:28:40;;;;;;;2.30;2.10;;;8.70;99.90;;;;;;5094816;28;20281;-64
2023/11/11 06:31:07;;;;;;;2.30;2.10;;;8.70;99.90;;;;;;5099405;28;20289;-64
2023/11/11 06:33:34;;;;;;;2.80;2.50;;;8.80;99.90;;;;;;5099707;28;20199;-64
2023/11/11 06:36:01;;;;;;;2.47;2.27;;;8.80;99.90;;;;;;5102245;28;20190;-64
2023/11/11 06:38:28;;;;;;;2.30;2.10;;;8.70;99.90;;;;;;5095639;28;20190;-64
2023/11/11 06:40:55;;;;;;;2.40;2.20;;;8.70;99.90;;;;;;5088289;28;20213;-63
2023/11/11 06:43:24;;;;;;;3.20;2.33;;;8.60;99.90;;;;;;5102419;28;20283;-63
2023/11/11 06:45:51;;;;;;;4.03;2.33;;;8.70;99.90;;;;;;5110065;28;20187;-64
2023/11/11 06:48:18;;;;;;;2.83;1.93;;;8.70;99.90;;;;;;5112165;28;20298;-64
2023/11/11 06:50:48;;;;;;;2.37;2.17;;;8.70;99.90;;;;;;5097625;28;20210;-63
2023/11/11 06:53:15;;;;;;;2.20;1.70;;;8.80;99.90;;;;;;5104976;28;20243;-64
2023/11/11 06:55:42;;;;;;;3.40;2.07;;;8.80;99.90;;;;;;5107970;28;20680;-63
2023/11/11 06:58:09;;;;;;;3.10;2.37;;;8.80;99.90;;;;;;5100151;28;20198;-63
2023/11/11 07:00:37;;;;;;;2.20;2.00;;;8.80;99.90;;;;;;5095768;28;20188;-64
2023/11/11 07:03:04;;;;;;;2.20;2.00;;;8.90;99.90;;;;;;5095119;28;20686;-64
2023/11/11 07:05:32;;;;;;;2.47;2.23;;;8.60;99.90;;;;;;5093509;28;20730;-64
2023/11/11 07:07:59;;;;;;;5.03;3.00;;;8.90;99.90;;;;;;5098673;28;20192;-63
2023/11/11 07:10:27;;;;;;;4.83;2.90;;;8.80;99.90;;;;;;5094449;28;20263;-64
2023/11/11 07:12:54;;;;;;;2.97;2.63;;;8.80;99.90;;;;;;5096502;28;20199;-64
2023/11/11 07:15:21;;;;;;;3.93;2.93;;;8.80;99.90;;;;;;5094805;28;20282;-65
2023/11/11 07:17:50;;;;;;;2.50;2.30;;;8.80;99.90;;;;;;5103783;28;20717;-64
2023/11/11 07:20:19;;;;;;;3.37;2.77;;;8.80;99.90;;;;;;5098634;28;20195;-64
2023/11/11 07:22:46;;;;;;;2.87;2.50;;;8.90;99.90;;;;;;5091505;28;20285;-64
2023/11/11 07:25:13;;;;;;;2.40;2.10;;;8.90;99.90;;;;;;5100896;28;20205;-64
2023/11/11 07:27:40;;;;;;;3.23;2.53;;;8.90;99.90;;;;;;5097732;28;20659;-64
2023/11/11 07:30:10;;;;;;;3.93;2.83;;;8.90;99.90;;;;;;5097736;28;20290;-64
2023/11/11 07:32:37;;;;;;;3.70;2.93;;;9.00;99.90;;;;;;5095028;28;20291;-64
2023/11/11 07:35:10;;;;;;;2.93;2.47;;;8.90;99.90;;;;;;5096505;28;20659;-64
2023/11/11 07:37:38;;;;;;;3.33;2.90;;;9.00;99.90;;;;;;5093634;28;20203;-64
2023/11/11 07:40:08;;;;;;;4.27;3.40;;;9.00;99.90;;;;;;5096324;28;20198;-64
2023/11/11 07:42:35;;;;;;;5.13;3.50;;;9.00;99.90;;;;;;5096129;28;20217;-64
2023/11/11 07:45:04;;;;;;;3.83;3.00;;;9.10;99.90;;;;;;5094975;28;20199;-64
2023/11/11 07:47:32;;;;;;;4.93;2.83;;;9.10;99.90;;;;;;5097956;28;20226;-64
2023/11/11 07:49:59;;;;;;;4.10;2.87;;;9.10;99.90;;;;;;5108242;28;20242;-63
2023/11/11 07:52:27;;;;;;;3.67;3.00;;;9.10;99.90;;;;;;5097116;28;20201;-64
2023/11/11 07:54:58;;;;;;;3.30;2.77;;;9.10;99.90;;;;;;5098945;28;20657;-64
2023/11/11 07:57:25;;;;;;;4.97;2.87;;;9.20;99.90;;;;;;5096199;28;20659;-64
2023/11/11 07:59:53;;;;;;;3.83;3.00;;;9.20;99.90;;;;;;5093506;28;20196;-63
2023/11/11 08:02:24;;;;;;;3.60;2.70;;;9.20;99.90;;;;;;5085207;28;20220;-63
2023/11/11 08:04:51;;;;;;;3.80;2.90;;;9.20;99.90;;;;;;5103016;28;20202;-63
2023/11/11 08:07:20;;;;;;;3.27;2.77;;;9.20;99.90;;;;;;5101623;28;20668;-64
2023/11/11 08:09:50;;;;;;;3.77;2.90;;;9.20;99.90;;;;;;5102674;28;20220;-64
2023/11/11 08:12:17;;;;;;;4.67;2.73;;;9.20;99.90;;;;;;5101046;28;20225;-63
2023/11/11 08:14:45;;;;;;;4.87;3.20;;;9.30;99.90;;;;;;5111362;28;20211;-64
2023/11/11 08:17:12;;;;;;;3.77;3.17;;;9.30;99.90;;;;;;5103308;28;20197;-64
2023/11/11 08:19:39;;;;;;;3.37;2.67;;;9.30;99.90;;;;;;5099082;28;20201;-65
2023/11/11 08:22:07;;;;;;;4.60;2.43;;;9.30;99.90;;;;;;5093091;28;20743;-63
2023/11/11 08:24:36;;;;;;;3.03;2.67;;;9.30;99.90;;;;;;5106953;28;20199;-64
2023/11/11 08:27:05;;;;;;;4.43;3.20;;;9.40;99.90;;;;;;5107629;28;20743;-64
2023/11/11 08:29:33;;;;;;;3.77;3.20;;;9.50;99.90;;;;;;5104705;28;20593;-64
2023/11/11 08:32:00;;;;;;;2.87;2.67;;;9.70;99.90;;;;;;5107742;28;20197;-63
2023/11/11 08:34:30;;;;;;;2.60;2.40;;;9.90;99.90;;;;;;5113875;28;20197;-63
2023/11/11 08:36:57;;;;;;;2.37;2.17;;;10.00;99.90;;;;;;5098363;28;20723;-63
2023/11/11 08:39:25;;;;;;;2.10;2.00;;;10.00;99.90;;;;;;5097997;28;20198;-64
2023/11/11 08:41:52;;;;;;;2.17;2.03;;;10.00;99.90;;;;;;5099208;28;20197;-64
2023/11/11 08:44:20;;;;;;;2.43;2.23;;;10.00;99.90;;;;;;5087954;28;20305;-64
2023/11/11 08:46:49;;;;;;;1.83;1.73;;;10.00;99.90;;;;;;5091052;28;20639;-64
2023/11/11 08:49:16;;;;;;;2.73;2.53;;;10.00;99.90;;;;;;5098472;28;20683;-63
2023/11/11 08:51:43;;;;;;;2.33;2.13;;;10.10;99.90;;;;;;5102048;28;20198;-64
2023/11/11 08:54:10;;;;;;;2.47;2.27;;;10.10;99.90;;;;;;5099549;28;20201;-63
2023/11/11 08:56:37;;;;;;;2.60;2.40;;;10.20;99.90;;;;;;5105502;28;20249;-64
2023/11/11 08:59:06;;;;;;;3.30;2.53;;;10.20;99.90;;;;;;5098885;28;20190;-63
2023/11/11 09:01:39;;;;;;;3.07;2.53;;;10.30;99.90;;;;;;5108998;28;20601;-65
2023/11/11 09:04:08;;;;;;;3.03;2.60;;;10.40;99.90;;;;;;5098092;28;20249;-63
2023/11/11 09:06:35;;;;;;;2.83;2.37;;;10.40;99.90;;;;;;5095027;28;20205;-65
2023/11/11 09:09:02;;;;;;;2.73;2.40;;;10.40;99.90;;;;;;5097099;28;20217;-64
2023/11/11 09:11:30;;;;;;;3.03;2.80;;;10.40;99.90;;;;;;5096682;28;20798;-64
2023/11/11 09:13:57;;;;;;;3.43;3.13;;;10.40;99.90;;;;;;5094517;28;20205;-64
2023/11/11 09:16:27;;;;;;;3.33;2.90;;;10.50;99.90;;;;;;5098254;28;20287;-63
2023/11/11 09:18:55;;;;;;;2.70;2.50;;;10.60;99.90;;;;;;5101704;28;20192;-63
2023/11/11 09:21:22;;;;;;;2.20;1.90;;;10.70;99.90;;;;;;5108968;28;20598;-64
2023/11/11 09:23:50;;;;;;;4.03;2.53;;;10.80;99.90;;;;;;5094495;28;20616;-64
2023/11/11 09:26:18;;;;;;;4.10;3.13;;;10.80;99.90;;;;;;5095396;28;20674;-63
2023/11/11 09:28:45;;;;;;;5.63;2.77;;;10.80;99.90;;;;;;5107225;28;20252;-64
2023/11/11 09:31:14;;;;;;;2.90;2.70;;;10.90;99.90;;;;;;5101369;28;20207;-63
2023/11/11 09:33:41;;;;;;;3.00;2.80;;;10.90;99.90;;;;;;5097966;28;20267;-64
2023/11/11 09:36:10;;;;;;;4.63;3.20;;;10.90;99.90;;;;;;5101986;28;20198;-63
2023/11/11 09:38:36;;;;;;;3.30;3.00;;;10.90;99.90;;;;;;5103198;28;20206;-63
2023/11/11 09:41:05;;;;;;;3.93;3.00;;;10.90;99.90;;;;;;5099411;28;20180;-63
2023/11/11 09:43:33;;;;;;;3.23;2.93;;;10.90;99.90;;;;;;5097367;28;20205;-63
2023/11/11 09:46:13;;;;;;;3.47;3.03;;;11.00;99.90;;;;;;5086354;28;20199;-63
2023/11/11 09:48:41;;;;;;;4.17;3.47;;;11.00;99.90;;;;;;5112517;27;20202;-63
2023/11/11 09:51:12;;;;;;;3.40;3.10;;;11.20;99.90;;;;;;5102343;28;20239;-64
2023/11/11 09:53:42;;;;;;;3.53;3.23;;;11.30;99.90;;;;;;5108077;28;20187;-63
2023/11/11 09:56:11;;;;;;;3.13;2.83;;;11.60;99.90;;;;;;5095602;28;20604;-63
2023/11/11 09:59:06;;;;;;;;;;;;;;;;;;;;;
2023/11/11 10:01:48;;;;;;;;;;;;;;;;;;;;;
2023/11/11 10:04:19;;;;;;;4.03;3.43;;;11.70;99.90;;;;;;5102088;28;20291;-64
2023/11/11 10:06:56;;;;;;;4.17;3.10;;;11.80;99.90;;;;;;5100366;28;20196;-64
2023/11/11 10:12:28;;;;;;;6.43;4.23;;;11.80;99.90;;;;;;5102046;28;20801;-64
2023/11/11 10:14:55;;;;;;;5.40;4.10;;;12.00;99.90;;;;;;5097067;28;20296;-64
2023/11/11 10:17:22;;;;;;;4.63;3.50;;;11.80;99.90;;;;;;5089700;28;20195;-63
2023/11/11 10:19:49;;;;;;;4.50;3.77;;;11.90;99.90;;;;;;5096448;28;20195;-63
2023/11/11 10:22:17;;;;;;;4.27;3.53;;;12.10;99.90;;;;;;5089087;28;20200;-63
2023/11/11 10:24:46;;;;;;;5.87;4.00;;;12.30;99.90;;;;;;5096461;28;20192;-63
2023/11/11 10:27:13;;;;;;;4.07;3.53;;;12.40;99.90;;;;;;5095789;28;20267;-64
2023/11/11 10:29:41;;;;;;;3.73;3.13;;;12.30;99.90;;;;;;5088592;28;20719;-64
2023/11/11 10:32:09;;;;;;;3.13;2.83;;;12.30;99.90;;;;;;5093662;28;20193;-66
2023/11/11 10:34:37;;;;;;;4.00;3.30;;;12.30;99.90;;;;;;5094837;28;20655;-63
2023/11/11 10:37:05;;;;;;;3.00;2.50;;;12.30;99.90;;;;;;5101123;28;20225;-64
2023/11/11 10:39:35;;;;;;;2.97;2.67;;;12.20;99.90;;;;;;5096438;28;20249;-63
2023/11/11 10:42:03;;;;;;;2.27;2.07;;;12.20;99.90;;;;;;5088322;28;20204;-63
2023/11/11 10:44:30;;;;;;;2.53;2.33;;;12.20;99.90;;;;;;5091860;28;20195;-63
2023/11/11 10:46:59;;;;;;;3.40;2.30;;;12.20;99.90;;;;;;5095915;28;20201;-64
2023/11/11 10:49:27;;;;;;;2.40;2.20;;;12.10;99.90;;;;;;5092936;28;20192;-63
2023/11/11 10:51:56;;;;;;;3.80;2.23;;;12.10;99.90;;;;;;5095862;28;20199;-65
2023/11/11 10:54:26;;;;;;;2.40;2.20;;;12.10;99.90;;;;;;5090199;28;20193;-64
2023/11/11 10:56:56;;;;;;;2.57;1.90;;;12.10;99.90;;;;;;5092215;28;20607;-64
2023/11/11 10:59:24;;;;;;;1.60;1.50;;;12.20;99.90;;;;;;5092641;28;20500;-63
2023/11/11 11:01:52;;;;;;;1.60;1.50;;;12.20;99.90;;;;;;5092205;28;20305;-64
2023/11/11 11:04:21;;;;;;;1.60;1.50;;;12.30;99.90;;;;;;5095814;28;20250;-64
2023/11/11 11:06:55;;;;;;;1.60;1.50;;;12.30;99.90;;;;;;5100974;28;20193;-64
2023/11/11 11:09:32;;;;;;;1.60;1.40;;;12.30;99.90;;;;;;5096057;28;20192;-64
2023/11/11 11:12:08;;;;;;;1.43;1.33;;;12.30;99.90;;;;;;5099337;28;20191;-64
2023/11/11 11:14:46;;;;;;;1.53;1.40;;;12.20;99.90;;;;;;5096531;28;20196;-64
2023/11/11 11:17:15;;;;;;;1.50;1.40;;;12.20;99.90;;;;;;5095729;28;20197;-64
2023/11/11 11:19:56;;;;;;;1.70;1.60;;;12.20;99.90;;;;;;5096552;28;20241;-64
2023/11/11 11:22:33;;;;;;;1.77;1.63;;;12.20;99.90;;;;;;5097279;28;20284;-64
2023/11/11 11:25:21;;;;;;;1.87;1.37;;;12.20;99.90;;;;;;5097472;28;20199;-64
2023/11/11 11:28:14;;;;;;;1.93;1.53;;;12.10;99.90;;;;;;5097317;28;20542;-63
2023/11/11 11:30:43;;;;;;;1.60;1.50;;;12.10;99.90;;;;;;5089237;28;20212;-64
2023/11/11 11:33:12;;;;;;;1.30;1.20;;;12.10;99.90;;;;;;5096383;28;20196;-64
2023/11/11 11:35:39;;;;;;;1.70;1.60;;;12.10;99.90;;;;;;5102709;28;20560;-64
2023/11/11 11:38:06;;;;;;;1.67;1.40;;;12.10;99.90;;;;;;5092837;28;20569;-63
2023/11/11 11:40:36;;;;;;;2.40;1.90;;;12.10;99.90;;;;;;5095131;28;20258;-64
2023/11/11 11:43:09;;;;;;;1.93;1.47;;;12.10;99.90;;;;;;5103395;28;20277;-64
2023/11/11 11:45:37;;;;;;;2.13;1.73;;;12.10;99.90;;;;;;5108215;28;20599;-64
2023/11/11 11:48:05;;;;;;;1.37;1.27;;;12.20;99.90;;;;;;5102269;28;20189;-64
2023/11/11 11:50:32;;;;;;;2.23;1.60;;;12.10;99.90;;;;;;5100410;28;20223;-64
2023/11/11 11:52:59;;;;;;;2.63;1.90;;;12.20;99.90;;;;;;5110979;28;20599;-64
2023/11/11 11:55:36;;;;;;;2.87;1.77;;;12.20;99.90;;;;;;5104421;28;20249;-65
2023/11/11 11:58:04;;;;;;;1.97;1.83;;;12.20;99.90;;;;;;5109699;28;20219;-63
2023/11/11 12:00:33;;;;;;;2.23;1.67;;;12.30;99.90;;;;;;5103802;28;20195;-64
2023/11/11 12:03:02;;;;;;;4.37;2.57;;;12.30;99.90;;;;;;5097340;28;20197;-64
2023/11/11 12:05:29;;;;;;;3.93;2.60;;;12.30;99.90;;;;;;5111783;28;20192;-64
2023/11/11 12:07:56;;;;;;;2.30;2.03;;;12.30;99.90;;;;;;5103733;28;20197;-64
2023/11/11 12:10:23;;;;;;;2.43;2.10;;;12.30;99.90;;;;;;5097360;28;20615;-63
2023/11/11 12:12:50;;;;;;;2.20;2.00;;;12.30;99.90;;;;;;5099747;28;20587;-64
2023/11/11 12:15:17;;;;;;;1.90;1.73;;;12.30;99.90;;;;;;5107320;28;20759;-64
2023/11/11 12:17:47;;;;;;;1.70;1.43;;;12.30;99.90;;;;;;5108568;28;20196;-63
2023/11/11 12:20:15;;;;;;;2.60;1.70;;;12.30;99.90;;;;;;5101349;28;20181;-63
2023/11/11 12:22:43;;;;;;;2.20;1.50;;;12.30;99.90;;;;;;5104248;28;20576;-64
2023/11/11 12:25:10;;;;;;;2.40;1.90;;;12.30;99.90;;;;;;5097279;28;20224;-63
2023/11/11 12:27:37;;;;;;;2.90;1.70;;;12.30;99.90;;;;;;5095438;28;20204;-64
2023/11/11 12:30:18;;;;;;;1.97;1.70;;;12.30;99.90;;;;;;5104825;28;20744;-64
2023/11/11 12:33:02;;;;;;;1.50;1.40;;;12.20;99.90;;;;;;5111340;28;20217;-64
2023/11/11 12:35:29;;;;;;;1.30;1.20;;;12.20;99.90;;;;;;5108740;28;20197;-64
2023/11/11 12:37:57;;;;;;;1.47;1.23;;;12.10;99.90;;;;;;5100260;28;20188;-64
2023/11/11 12:40:31;;;;;;;1.20;1.10;;;12.10;99.90;;;;;;5110926;28;20196;-64
2023/11/11 12:42:58;;;;;;;3.90;1.00;;;12.10;99.90;;;;;;5101214;28;20271;-63
2023/11/11 12:45:26;;;;;;;0.90;0.90;;;12.00;99.90;;;;;;5102224;28;20204;-63
2023/11/11 12:47:54;;;;;;;1.03;1.03;;;12.00;99.90;;;;;;5104295;28;20675;-64
2023/11/11 12:50:31;;;;;;;0.80;0.80;;;12.00;99.90;;;;;;5108691;28;20198;-64
2023/11/11 12:53:07;;;;;;;1.00;0.90;;;12.00;99.90;;;;;;5095675;28;20224;-65
2023/11/11 12:55:34;;;;;;;0.87;0.87;;;12.00;99.90;;;;;;5106203;28;20268;-63
2023/11/11 12:58:21;;;;;;;1.00;1.00;;;12.00;99.90;;;;;;5111184;28;20645;-63
2023/11/11 13:00:50;;;;;;;1.00;0.90;;;11.90;99.90;;;;;;5104102;28;20734;-64
2023/11/11 13:03:25;;;;;;;0.73;0.73;;;11.90;99.90;;;;;;5105896;28;20728;-64
2023/11/11 13:05:53;;;;;;;0.80;0.80;;;11.90;99.90;;;;;;5101574;28;20345;-64